Time;durP1;ratioP1;P1;durP2;ratioP2;P2;SDS_P1;SDS_P2;PMS_P1;PMS_P2;Temp;Humidity;BMP_temperature;BMP_pressure;BME280_temperature;BME280_humidity;BME280_pressure;Samples;Min_cycle;Max_cycle;Signal;HPM_P1;HPM_P2
2023/04/20 00:00:25;;;;;;;2.58;1.50;;;10.70;99.90;;;;;;7403391;19;19962;-79
2023/04/20 00:02:54;;;;;;;2.92;1.20;;;10.70;99.90;;;;;;7401304;19;19923;-79
2023/04/20 00:05:24;;;;;;;3.58;1.63;;;10.70;99.90;;;;;;7401028;19;20296;-79
2023/04/20 00:07:53;;;;;;;4.30;1.40;;;10.60;99.90;;;;;;7401822;19;20014;-79
2023/04/20 00:10:22;;;;;;;5.78;1.52;;;9.90;99.90;;;;;;7403884;19;20267;-78
2023/04/20 00:12:54;;;;;;;2.45;1.45;;;10.60;99.90;;;;;;7401537;19;20352;-78
2023/04/20 00:15:23;;;;;;;4.88;1.20;;;10.70;99.90;;;;;;7403216;19;19990;-78
2023/04/20 00:17:52;;;;;;;1.75;1.33;;;10.70;99.90;;;;;;7401765;19;19926;-78
2023/04/20 00:20:21;;;;;;;2.22;1.27;;;10.70;99.90;;;;;;7402940;19;19982;-78
2023/04/20 00:22:50;;;;;;;5.82;1.27;;;10.70;99.90;;;;;;7396563;19;19929;-78
2023/04/20 00:25:19;;;;;;;1.98;1.30;;;10.80;99.90;;;;;;7399816;19;19926;-78
2023/04/20 00:27:48;;;;;;;4.03;1.60;;;10.70;99.90;;;;;;7401480;19;19986;-78
2023/04/20 00:30:20;;;;;;;4.10;1.50;;;10.70;99.90;;;;;;7404766;19;19929;-78
2023/04/20 00:32:51;;;;;;;2.15;1.20;;;10.70;99.90;;;;;;7401836;19;20275;-79
2023/04/20 00:35:20;;;;;;;5.38;1.38;;;10.50;99.90;;;;;;7401975;19;19925;-83
2023/04/20 00:37:49;;;;;;;7.28;1.40;;;10.60;99.90;;;;;;7398254;19;19929;-79
2023/04/20 00:40:18;;;;;;;3.58;1.40;;;10.70;99.90;;;;;;7403611;19;20369;-79
2023/04/20 00:42:47;;;;;;;2.35;1.38;;;10.50;99.90;;;;;;7401996;19;19926;-79
2023/04/20 00:45:21;;;;;;;3.47;1.40;;;10.60;99.90;;;;;;7401759;19;19944;-79
2023/04/20 00:47:50;;;;;;;3.53;1.27;;;10.50;99.90;;;;;;7404586;19;19929;-79
2023/04/20 00:50:19;;;;;;;2.45;1.20;;;10.50;99.90;;;;;;7403929;19;19930;-79
2023/04/20 00:52:49;;;;;;;2.28;1.10;;;10.50;99.90;;;;;;7404909;19;19979;-79
2023/04/20 00:55:19;;;;;;;3.28;1.40;;;10.50;99.90;;;;;;7403765;19;19922;-79
2023/04/20 00:57:48;;;;;;;2.80;1.23;;;10.50;99.90;;;;;;7401487;19;19929;-79
2023/04/20 01:00:20;;;;;;;2.70;1.10;;;10.50;99.90;;;;;;7401222;19;20354;-79
2023/04/20 01:02:49;;;;;;;3.97;1.27;;;10.30;99.90;;;;;;7401378;19;19919;-79
2023/04/20 01:05:32;;;;;;;;;;;10.40;99.90;;;;;;7403998;19;19946;-79
2023/04/20 01:08:01;;;;;;;4.15;1.20;;;10.50;99.90;;;;;;7395915;19;19931;-79
2023/04/20 01:10:29;;;;;;;2.75;1.40;;;10.30;99.90;;;;;;7403277;19;19929;-79
2023/04/20 01:12:59;;;;;;;3.53;1.30;;;10.30;99.90;;;;;;7400505;19;19942;-79
2023/04/20 01:15:30;;;;;;;4.00;1.42;;;10.30;99.90;;;;;;7400017;19;19951;-78
2023/04/20 01:17:59;;;;;;;2.58;1.42;;;10.20;99.90;;;;;;7400627;19;19950;-79
2023/04/20 01:20:28;;;;;;;5.10;1.25;;;10.10;99.90;;;;;;7400403;19;20468;-79
2023/04/20 01:23:00;;;;;;;2.97;1.30;;;10.00;99.90;;;;;;7399974;19;19950;-78
2023/04/20 01:25:29;;;;;;;2.05;1.25;;;10.00;99.90;;;;;;7398798;19;19922;-79
2023/04/20 01:27:58;;;;;;;4.93;1.55;;;10.10;99.90;;;;;;7401167;19;19957;-78
2023/04/20 01:30:27;;;;;;;4.13;1.55;;;10.20;99.90;;;;;;7400367;19;20287;-78
2023/04/20 01:32:56;;;;;;;5.15;1.52;;;10.10;99.90;;;;;;7400135;19;20277;-78
2023/04/20 01:35:25;;;;;;;1.83;1.08;;;10.00;99.90;;;;;;7399278;19;20470;-79
2023/04/20 01:37:54;;;;;;;5.38;1.50;;;10.00;99.90;;;;;;7400660;19;19923;-79
2023/04/20 01:40:26;;;;;;;3.63;1.40;;;10.00;99.90;;;;;;7400866;19;19998;-79
2023/04/20 01:42:55;;;;;;;4.25;1.60;;;9.80;99.90;;;;;;7400093;19;19926;-78
2023/04/20 01:45:24;;;;;;;2.47;1.25;;;9.80;99.90;;;;;;7397815;19;19940;-78
2023/04/20 01:47:53;;;;;;;3.08;1.20;;;9.70;99.90;;;;;;7399994;19;19926;-79
2023/04/20 01:50:22;;;;;;;2.75;1.25;;;9.60;99.90;;;;;;7399057;19;19954;-79
2023/04/20 01:52:54;;;;;;;3.35;1.90;;;9.50;99.90;;;;;;7397756;19;19943;-78
2023/04/20 01:55:23;;;;;;;2.50;1.48;;;9.50;99.90;;;;;;7400217;19;19923;-78
2023/04/20 01:57:54;;;;;;;2.33;1.40;;;9.60;99.90;;;;;;7400428;19;19935;-78
2023/04/20 02:00:23;;;;;;;3.22;2.13;;;9.40;99.90;;;;;;7400385;19;20272;-79
2023/04/20 02:02:56;;;;;;;2.13;1.38;;;9.60;99.90;;;;;;7400628;19;19978;-79
2023/04/20 02:05:25;;;;;;;6.50;1.92;;;9.60;99.90;;;;;;7396937;19;19918;-78
2023/04/20 02:07:54;;;;;;;5.20;1.20;;;9.50;99.90;;;;;;7397939;19;19922;-78
2023/04/20 02:10:23;;;;;;;2.70;1.38;;;9.50;99.90;;;;;;7399921;19;19925;-78
2023/04/20 02:12:55;;;;;;;3.88;1.60;;;9.40;99.90;;;;;;7398448;19;19925;-79
2023/04/20 02:15:24;;;;;;;3.75;1.42;;;10.40;99.90;;;;;;7398825;19;20356;-78
2023/04/20 02:17:53;;;;;;;5.45;1.50;;;9.40;99.90;;;;;;7396405;19;19922;-78
2023/04/20 02:20:23;;;;;;;3.13;1.20;;;9.50;99.90;;;;;;7399875;19;19939;-78
2023/04/20 02:22:51;;;;;;;2.53;1.38;;;9.50;99.90;;;;;;7400355;19;19914;-78
2023/04/20 02:25:20;;;;;;;5.78;1.77;;;9.40;99.90;;;;;;7398025;19;19919;-79
2023/04/20 02:27:50;;;;;;;2.30;1.17;;;9.60;99.90;;;;;;7399628;19;20015;-78
2023/04/20 02:30:21;;;;;;;3.45;1.27;;;9.60;99.90;;;;;;7399170;19;19918;-78
2023/04/20 02:32:50;;;;;;;;;;;9.50;99.90;;;;;;7401872;19;19914;-79
2023/04/20 02:35:19;;;;;;;3.38;1.33;;;9.40;99.90;;;;;;7400549;19;20344;-78
2023/04/20 02:37:48;;;;;;;3.72;2.15;;;9.50;99.90;;;;;;7397929;19;20005;-78
2023/04/20 02:40:17;;;;;;;5.30;1.58;;;9.60;99.90;;;;;;7398304;19;19923;-78
2023/04/20 02:42:46;;;;;;;2.67;1.40;;;9.70;99.90;;;;;;7398793;19;19951;-78
2023/04/20 02:45:15;;;;;;;1.95;1.20;;;9.70;99.90;;;;;;7396967;19;19930;-78
2023/04/20 02:47:47;;;;;;;2.45;1.25;;;9.40;99.90;;;;;;7398281;19;19922;-78
2023/04/20 02:50:16;;;;;;;2.75;1.60;;;10.20;99.90;;;;;;7398245;19;19926;-78
2023/04/20 02:52:45;;;;;;;2.70;1.27;;;9.60;99.90;;;;;;7398271;19;20264;-78
2023/04/20 02:55:15;;;;;;;3.25;1.50;;;9.50;99.90;;;;;;7397996;19;19983;-78
2023/04/20 02:57:44;;;;;;;3.55;1.88;;;9.60;99.90;;;;;;7398077;19;19983;-78
2023/04/20 03:00:14;;;;;;;3.85;1.40;;;9.60;99.90;;;;;;7398997;19;19922;-78
2023/04/20 03:02:47;;;;;;;3.42;1.50;;;9.60;99.90;;;;;;7398114;19;19926;-78
2023/04/20 03:05:16;;;;;;;1.77;1.40;;;9.60;99.90;;;;;;7397226;19;19929;-78
2023/04/20 03:07:45;;;;;;;3.28;1.50;;;9.60;99.90;;;;;;7398308;19;19918;-78
2023/04/20 03:10:15;;;;;;;7.82;1.90;;;9.60;99.90;;;;;;7397243;19;19935;-77
2023/04/20 03:12:44;;;;;;;4.43;1.33;;;9.70;99.90;;;;;;7398372;19;19923;-78
2023/04/20 03:15:14;;;;;;;2.20;1.48;;;9.70;99.90;;;;;;7398420;19;19932;-78
2023/04/20 03:17:43;;;;;;;2.40;1.20;;;9.60;99.90;;;;;;7396138;19;19922;-78
2023/04/20 03:20:15;;;;;;;6.53;1.88;;;10.50;99.90;;;;;;7396488;19;20332;-80
2023/04/20 03:22:44;;;;;;;3.42;2.17;;;9.40;99.90;;;;;;7399453;19;20368;-78
2023/04/20 03:25:13;;;;;;;6.20;1.45;;;9.50;99.90;;;;;;7396905;19;19922;-79
2023/04/20 03:27:42;;;;;;;3.40;1.13;;;9.40;99.90;;;;;;7398183;19;19950;-78
2023/04/20 03:30:13;;;;;;;2.08;1.42;;;9.40;99.90;;;;;;7396088;19;19939;-78
2023/04/20 03:32:42;;;;;;;3.70;1.63;;;9.50;99.90;;;;;;7405024;19;19924;-78
2023/04/20 03:35:14;;;;;;;3.72;1.20;;;9.50;99.90;;;;;;7402415;19;19986;-78
2023/04/20 03:37:43;;;;;;;4.68;1.30;;;9.50;99.90;;;;;;7404159;19;20350;-77
2023/04/20 03:40:13;;;;;;;2.53;1.30;;;9.30;99.90;;;;;;7403814;19;19926;-78
2023/04/20 03:42:43;;;;;;;4.43;1.55;;;9.30;99.90;;;;;;7405583;19;20008;-78
2023/04/20 03:45:13;;;;;;;3.92;1.40;;;9.30;99.90;;;;;;7402910;19;19971;-78
2023/04/20 03:47:42;;;;;;;2.40;1.20;;;9.50;99.90;;;;;;7403557;19;20400;-78
2023/04/20 03:50:14;;;;;;;4.57;1.70;;;9.40;99.90;;;;;;7403189;19;19930;-78
2023/04/20 03:52:43;;;;;;;8.95;1.25;;;9.40;99.90;;;;;;7404487;19;20328;-78
2023/04/20 03:55:12;;;;;;;2.42;1.23;;;9.30;99.90;;;;;;7404116;19;19994;-78
2023/04/20 03:57:42;;;;;;;4.05;1.70;;;9.30;99.90;;;;;;7403807;19;19926;-78
2023/04/20 04:00:12;;;;;;;6.07;1.85;;;9.40;99.90;;;;;;7404047;19;19925;-78
2023/04/20 04:02:50;;;;;;;3.05;1.60;;;9.30;99.90;;;;;;7403233;19;19927;-78
2023/04/20 04:05:22;;;;;;;3.33;1.30;;;9.20;99.90;;;;;;7399238;19;19929;-78
2023/04/20 04:07:51;;;;;;;2.30;1.30;;;9.30;99.90;;;;;;7399458;19;19919;-78
2023/04/20 04:10:20;;;;;;;3.03;1.38;;;9.30;99.90;;;;;;7402313;19;19929;-77
2023/04/20 04:12:49;;;;;;;3.70;1.30;;;9.20;99.90;;;;;;7402989;19;19918;-78
2023/04/20 04:15:19;;;;;;;3.60;1.40;;;9.20;99.90;;;;;;7404471;19;19942;-78
2023/04/20 04:17:49;;;;;;;3.92;1.20;;;9.20;99.90;;;;;;7403457;19;20453;-78
2023/04/20 04:20:18;;;;;;;0.90;0.85;;;9.10;99.90;;;;;;7401830;19;20382;-78
2023/04/20 04:22:50;;;;;;;3.22;1.42;;;9.20;99.90;;;;;;7400256;19;19922;-79
2023/04/20 04:25:22;;;;;;;2.88;1.27;;;9.00;99.90;;;;;;7400831;19;20024;-77
2023/04/20 04:27:52;;;;;;;2.78;1.40;;;9.20;99.90;;;;;;7401446;19;19930;-77
2023/04/20 04:30:21;;;;;;;2.72;1.02;;;9.00;99.90;;;;;;7400283;19;20410;-78
2023/04/20 04:32:50;;;;;;;5.15;1.30;;;9.10;99.90;;;;;;7401791;19;19922;-78
2023/04/20 04:35:29;;;;;;;4.07;1.55;;;9.00;99.90;;;;;;7400165;19;19934;-78
2023/04/20 04:38:01;;;;;;;3.53;1.60;;;8.90;99.90;;;;;;7401482;19;19982;-77
2023/04/20 04:40:31;;;;;;;;;;;9.10;99.90;;;;;;7403237;19;19918;-78
2023/04/20 04:43:00;;;;;;;1.75;1.13;;;8.90;99.90;;;;;;7401702;19;19925;-77
2023/04/20 04:45:29;;;;;;;5.20;1.42;;;9.10;99.90;;;;;;7400871;19;19923;-78
2023/04/20 04:47:58;;;;;;;4.97;1.30;;;9.50;99.90;;;;;;7402139;19;20256;-78
2023/04/20 04:50:27;;;;;;;2.67;1.40;;;9.00;99.90;;;;;;7401597;19;19922;-78
2023/04/20 04:52:56;;;;;;;1.85;1.33;;;8.80;99.90;;;;;;7399483;19;19923;-78
2023/04/20 04:55:28;;;;;;;4.93;1.30;;;8.80;99.90;;;;;;7402167;19;20301;-78
2023/04/20 04:57:57;;;;;;;3.42;1.67;;;8.70;99.90;;;;;;7400045;19;19945;-77
2023/04/20 05:00:28;;;;;;;5.95;1.63;;;8.70;99.90;;;;;;7399045;19;20670;-78
2023/04/20 05:02:56;;;;;;;4.68;1.38;;;8.70;99.90;;;;;;7401837;19;19922;-78
2023/04/20 05:05:26;;;;;;;2.70;1.50;;;8.60;99.90;;;;;;7401615;19;19918;-78
2023/04/20 05:07:55;;;;;;;2.92;1.25;;;8.60;99.90;;;;;;7398258;19;19933;-78
2023/04/20 05:10:26;;;;;;;2.10;1.10;;;8.60;99.90;;;;;;7402467;19;20023;-78
2023/04/20 05:12:57;;;;;;;2.92;1.45;;;8.50;99.90;;;;;;7401524;19;19942;-77
2023/04/20 05:15:26;;;;;;;4.40;1.95;;;8.50;99.90;;;;;;7401343;19;19926;-77
2023/04/20 05:17:55;;;;;;;2.20;1.42;;;8.50;99.90;;;;;;7398002;19;19922;-79
2023/04/20 05:20:24;;;;;;;4.35;1.33;;;8.60;99.90;;;;;;7403607;19;19933;-77
2023/04/20 05:22:53;;;;;;;2.35;1.30;;;8.60;99.90;;;;;;7399493;19;19926;-77
2023/04/20 05:25:22;;;;;;;3.08;1.67;;;8.50;99.90;;;;;;7401249;19;20377;-78
2023/04/20 05:27:53;;;;;;;4.05;1.63;;;8.40;99.90;;;;;;7400653;19;19982;-77
2023/04/20 05:30:22;;;;;;;2.80;1.52;;;8.60;99.90;;;;;;7400927;19;19926;-78
2023/04/20 05:32:51;;;;;;;4.43;1.40;;;8.60;99.90;;;;;;7401181;19;19922;-78
2023/04/20 05:35:21;;;;;;;2.13;1.30;;;8.50;99.90;;;;;;7402433;19;19978;-77
2023/04/20 05:37:50;;;;;;;4.65;1.50;;;9.40;99.90;;;;;;7401963;19;19923;-78
2023/04/20 05:40:19;;;;;;;3.42;1.48;;;8.60;99.90;;;;;;7403834;19;19922;-77
2023/04/20 05:42:52;;;;;;;6.28;1.50;;;8.60;99.90;;;;;;7401222;19;19926;-77
2023/04/20 05:45:21;;;;;;;3.17;1.58;;;8.50;99.90;;;;;;7400800;19;19922;-77
2023/04/20 05:47:56;;;;;;;4.00;1.77;;;8.50;99.90;;;;;;7401193;19;19922;-77
2023/04/20 05:50:26;;;;;;;3.13;1.17;;;8.60;99.90;;;;;;7399317;19;19935;-77
2023/04/20 05:52:55;;;;;;;1.40;0.98;;;8.50;99.90;;;;;;7398294;19;19922;-77
2023/04/20 05:55:25;;;;;;;1.80;1.52;;;8.60;99.90;;;;;;7399524;19;19974;-77
2023/04/20 05:57:57;;;;;;;3.40;1.58;;;8.60;99.90;;;;;;7400252;19;19933;-78
2023/04/20 06:00:27;;;;;;;3.75;1.52;;;8.80;99.90;;;;;;7400867;19;19931;-77
2023/04/20 06:02:59;;;;;;;2.30;1.60;;;8.60;99.90;;;;;;7401400;19;20336;-76
2023/04/20 06:05:27;;;;;;;6.30;1.38;;;8.60;99.90;;;;;;7398117;19;19937;-78
2023/04/20 06:07:56;;;;;;;4.03;1.30;;;8.50;99.90;;;;;;7400260;19;19922;-78
2023/04/20 06:10:31;;;;;;;4.65;1.70;;;8.70;99.90;;;;;;7400006;19;20353;-77
2023/04/20 06:13:02;;;;;;;2.25;1.30;;;8.50;99.90;;;;;;7400512;19;20411;-80
2023/04/20 06:15:31;;;;;;;3.85;1.33;;;8.60;99.90;;;;;;7397711;19;19922;-80
2023/04/20 06:18:00;;;;;;;2.80;1.58;;;8.60;99.90;;;;;;7400408;19;20566;-80
2023/04/20 06:20:29;;;;;;;2.08;1.27;;;8.50;99.90;;;;;;7398556;19;19930;-80
2023/04/20 06:22:58;;;;;;;2.90;1.38;;;8.60;99.90;;;;;;7393467;19;19937;-78
2023/04/20 06:25:27;;;;;;;4.18;1.65;;;8.50;99.90;;;;;;7394496;19;19923;-78
2023/04/20 06:27:56;;;;;;;4.35;1.50;;;8.50;99.90;;;;;;7399553;19;19923;-78
2023/04/20 06:30:27;;;;;;;3.95;1.65;;;8.50;99.90;;;;;;7398700;19;19929;-78
2023/04/20 06:32:56;;;;;;;4.82;1.50;;;8.50;99.90;;;;;;7399425;19;20265;-80
2023/04/20 06:35:25;;;;;;;4.82;1.88;;;8.30;99.90;;;;;;7395748;19;19978;-78
2023/04/20 06:37:56;;;;;;;4.85;1.83;;;8.30;99.90;;;;;;7398727;19;19925;-78
2023/04/20 06:40:25;;;;;;;6.45;2.30;;;8.40;99.90;;;;;;7399330;19;19950;-78
2023/04/20 06:42:54;;;;;;;3.80;1.73;;;8.30;99.90;;;;;;7399184;19;19930;-78
2023/04/20 06:45:23;;;;;;;1.98;1.40;;;8.20;99.90;;;;;;7397308;19;20362;-78
2023/04/20 06:47:54;;;;;;;3.10;1.58;;;8.30;99.90;;;;;;7395832;19;19922;-78
2023/04/20 06:50:23;;;;;;;3.63;2.33;;;8.10;99.90;;;;;;7398676;19;20263;-78
2023/04/20 06:52:52;;;;;;;3.25;1.50;;;8.10;99.90;;;;;;7396508;19;19929;-77
2023/04/20 06:55:21;;;;;;;3.70;1.60;;;8.10;99.90;;;;;;7397134;19;19970;-78
2023/04/20 06:57:50;;;;;;;3.78;1.40;;;8.10;99.90;;;;;;7395062;19;19919;-78
2023/04/20 07:00:20;;;;;;;3.92;1.60;;;8.00;99.90;;;;;;7397331;19;20251;-77
2023/04/20 07:02:51;;;;;;;3.10;1.50;;;8.00;99.90;;;;;;7400090;19;19922;-78
2023/04/20 07:05:22;;;;;;;3.83;1.63;;;7.90;99.90;;;;;;7402990;19;19929;-77
2023/04/20 07:07:51;;;;;;;5.50;2.03;;;8.00;99.90;;;;;;7404105;19;20324;-76
2023/04/20 07:10:40;;;;;;;3.42;1.52;;;7.90;99.90;;;;;;7403632;19;19923;-78
2023/04/20 07:13:09;;;;;;;5.20;1.90;;;8.10;99.90;;;;;;7407133;19;20253;-78
2023/04/20 07:15:38;;;;;;;3.30;1.90;;;8.10;99.90;;;;;;7405627;19;19925;-77
2023/04/20 07:18:07;;;;;;;5.53;1.73;;;8.00;99.90;;;;;;7403533;19;19937;-78
2023/04/20 07:20:39;;;;;;;3.28;1.67;;;8.00;99.90;;;;;;7405330;19;19926;-78
2023/04/20 07:23:08;;;;;;;3.10;1.55;;;8.00;99.90;;;;;;7403810;19;20018;-79
2023/04/20 07:25:36;;;;;;;4.45;1.70;;;8.50;99.90;;;;;;7404806;19;20275;-79
2023/04/20 07:28:05;;;;;;;3.42;1.73;;;8.20;99.90;;;;;;7403455;19;19919;-79
2023/04/20 07:30:34;;;;;;;3.88;1.75;;;8.10;99.90;;;;;;7403851;19;19926;-79
2023/04/20 07:33:03;;;;;;;3.42;1.95;;;8.20;99.90;;;;;;7399289;19;19925;-79
2023/04/20 07:35:32;;;;;;;4.32;1.88;;;8.10;99.90;;;;;;7403869;19;20397;-79
2023/04/20 07:38:04;;;;;;;3.40;2.10;;;8.20;99.90;;;;;;7401278;19;19926;-79
2023/04/20 07:40:34;;;;;;;2.88;1.60;;;8.10;99.90;;;;;;7403200;19;19918;-79
2023/04/20 07:43:04;;;;;;;4.38;1.80;;;8.30;99.90;;;;;;7402725;19;19922;-79
2023/04/20 07:45:32;;;;;;;3.38;1.85;;;8.30;99.90;;;;;;7397409;19;19936;-79
2023/04/20 07:48:04;;;;;;;2.58;1.92;;;8.20;99.90;;;;;;7398036;19;19923;-79
2023/04/20 07:50:33;;;;;;;3.58;1.55;;;8.40;99.90;;;;;;7404719;19;20422;-79
2023/04/20 07:53:04;;;;;;;5.57;1.88;;;8.30;99.90;;;;;;7403100;19;19934;-79
2023/04/20 07:55:34;;;;;;;3.80;1.90;;;8.30;99.90;;;;;;7405277;19;19985;-77
2023/04/20 07:58:03;;;;;;;3.90;2.00;;;8.40;99.90;;;;;;7404691;19;19925;-77
2023/04/20 08:00:32;;;;;;;3.35;1.98;;;8.40;99.90;;;;;;7403772;19;19923;-77
2023/04/20 08:03:02;;;;;;;5.68;2.25;;;8.40;99.90;;;;;;7398832;19;19918;-78
2023/04/20 08:05:31;;;;;;;3.53;1.83;;;8.50;99.90;;;;;;7403887;19;19934;-78
2023/04/20 08:08:00;;;;;;;3.30;1.90;;;8.60;99.90;;;;;;7400560;19;19943;-78
2023/04/20 08:10:31;;;;;;;4.60;2.08;;;8.70;99.90;;;;;;7402639;19;19954;-78
2023/04/20 08:13:00;;;;;;;3.63;2.20;;;8.70;99.90;;;;;;7403128;19;20022;-78
2023/04/20 08:15:30;;;;;;;4.85;2.45;;;9.00;99.90;;;;;;7402839;19;19945;-78
2023/04/20 08:17:58;;;;;;;4.55;2.50;;;8.80;99.90;;;;;;7402336;19;20351;-78
2023/04/20 08:20:27;;;;;;;3.75;2.40;;;8.70;99.90;;;;;;7404261;19;19918;-78
2023/04/20 08:22:56;;;;;;;6.40;3.03;;;8.80;99.90;;;;;;7404090;19;19918;-77
2023/04/20 08:25:25;;;;;;;3.30;2.30;;;8.70;99.90;;;;;;7402113;19;19930;-77
2023/04/20 08:27:56;;;;;;;5.15;2.25;;;8.70;99.90;;;;;;7398282;19;19924;-78
2023/04/20 08:30:26;;;;;;;6.28;2.38;;;8.80;99.90;;;;;;7403260;19;19949;-78
2023/04/20 08:32:54;;;;;;;3.15;2.13;;;8.60;99.90;;;;;;7401795;19;19930;-78
2023/04/20 08:35:23;;;;;;;3.50;2.20;;;8.60;99.90;;;;;;7400948;19;19919;-78
2023/04/20 08:37:52;;;;;;;4.95;2.85;;;8.60;99.90;;;;;;7399173;19;19923;-78
2023/04/20 08:40:23;;;;;;;4.65;2.40;;;9.80;99.90;;;;;;7397084;19;19923;-78
2023/04/20 08:42:52;;;;;;;4.80;2.92;;;8.60;99.90;;;;;;7398702;19;19929;-79
2023/04/20 08:45:24;;;;;;;5.05;2.40;;;8.60;99.90;;;;;;7403549;19;19928;-78
2023/04/20 08:47:54;;;;;;;4.47;2.40;;;8.70;99.90;;;;;;7400890;19;19923;-78
2023/04/20 08:50:23;;;;;;;5.03;2.67;;;8.70;99.90;;;;;;7403078;19;19922;-78
2023/04/20 08:52:52;;;;;;;6.00;2.45;;;8.80;99.90;;;;;;7401389;19;19922;-78
2023/04/20 08:55:21;;;;;;;5.60;2.80;;;8.80;99.90;;;;;;7399861;19;19937;-78
2023/04/20 08:57:50;;;;;;;5.00;2.22;;;9.10;99.90;;;;;;7402056;19;20841;-78
2023/04/20 09:00:23;;;;;;;5.50;2.83;;;9.50;99.90;;;;;;7400272;19;19918;-78
2023/04/20 09:02:53;;;;;;;6.00;2.63;;;9.10;99.90;;;;;;7404734;19;20279;-78
2023/04/20 09:05:30;;;;;;;7.13;2.63;;;9.10;99.90;;;;;;7399336;19;20356;-79
2023/04/20 09:08:01;;;;;;;5.38;2.78;;;10.60;99.90;;;;;;7401626;19;19921;-79
2023/04/20 09:10:42;;;;;;;3.85;2.40;;;9.10;99.90;;;;;;7401269;19;20288;-79
2023/04/20 09:13:11;;;;;;;5.00;2.22;;;9.20;99.90;;;;;;7399702;19;20273;-79
2023/04/20 09:15:43;;;;;;;5.82;2.35;;;10.30;99.90;;;;;;7402345;19;19970;-79
2023/04/20 09:18:16;;;;;;;4.60;2.22;;;9.10;99.90;;;;;;7400869;19;20256;-79
2023/04/20 09:20:46;;;;;;;4.63;2.20;;;9.10;99.90;;;;;;7401064;19;19922;-79
2023/04/20 09:23:15;;;;;;;5.30;2.92;;;9.00;99.90;;;;;;7401935;19;19925;-78
2023/04/20 09:25:45;;;;;;;4.00;2.15;;;8.90;99.90;;;;;;7402180;19;20006;-78
2023/04/20 09:28:16;;;;;;;6.40;2.53;;;9.20;99.90;;;;;;7394051;19;19922;-79
2023/04/20 09:30:50;;;;;;;9.63;2.85;;;9.20;99.90;;;;;;7398922;19;20028;-79
2023/04/20 09:33:19;;;;;;;4.40;2.40;;;9.10;99.90;;;;;;7400329;19;19914;-79
2023/04/20 09:35:48;;;;;;;3.92;2.22;;;9.10;99.90;;;;;;7397375;19;19966;-79
2023/04/20 09:38:18;;;;;;;5.13;2.63;;;9.00;99.90;;;;;;7395840;19;20619;-79
2023/04/20 09:40:47;;;;;;;4.60;2.25;;;8.90;99.90;;;;;;7398625;19;19950;-79
2023/04/20 09:43:20;;;;;;;6.38;2.40;;;9.00;99.90;;;;;;7395879;19;19946;-79
2023/04/20 09:45:52;;;;;;;4.57;2.80;;;9.10;99.90;;;;;;7398673;19;19926;-80
2023/04/20 09:48:21;;;;;;;6.57;3.20;;;9.00;99.90;;;;;;7395284;19;19918;-80
2023/04/20 09:50:50;;;;;;;5.07;2.80;;;8.80;99.90;;;;;;7399115;19;19930;-76
2023/04/20 09:53:20;;;;;;;4.65;2.65;;;9.00;99.90;;;;;;7401175;19;20319;-77
2023/04/20 09:55:50;;;;;;;5.60;2.60;;;8.80;99.90;;;;;;7399445;19;19934;-80
2023/04/20 09:58:21;;;;;;;4.50;2.40;;;8.90;99.90;;;;;;7401191;19;19936;-78
2023/04/20 10:00:52;;;;;;;3.90;2.83;;;8.80;99.90;;;;;;7400280;19;19943;-77
2023/04/20 10:03:22;;;;;;;5.20;2.85;;;8.90;99.90;;;;;;7399597;19;19937;-78
2023/04/20 10:05:54;;;;;;;7.35;3.10;;;8.80;99.90;;;;;;7395151;19;20333;-78
2023/04/20 10:08:23;;;;;;;7.10;2.78;;;8.80;99.90;;;;;;7396539;19;19942;-78
2023/04/20 10:10:52;;;;;;;5.80;2.70;;;9.00;99.90;;;;;;7400906;19;20250;-78
2023/04/20 10:13:22;;;;;;;4.95;3.15;;;8.80;99.90;;;;;;7392580;19;19922;-78
2023/04/20 10:15:53;;;;;;;6.40;2.90;;;9.10;99.90;;;;;;7400785;19;19926;-78
2023/04/20 10:18:24;;;;;;;3.92;2.47;;;9.20;99.90;;;;;;7400548;19;19910;-78
2023/04/20 10:20:54;;;;;;;4.43;3.30;;;9.20;99.90;;;;;;7401032;19;19915;-78
2023/04/20 10:23:23;;;;;;;6.05;2.95;;;9.20;99.90;;;;;;7398075;19;19915;-78
2023/04/20 10:25:59;;;;;;;4.40;3.10;;;9.30;99.90;;;;;;7400780;19;19926;-78
2023/04/20 10:28:39;;;;;;;4.30;2.53;;;9.30;99.90;;;;;;7398683;19;19919;-78
2023/04/20 10:31:12;;;;;;;6.68;2.70;;;9.20;99.90;;;;;;7402527;19;20366;-78
2023/04/20 10:33:54;;;;;;;6.00;3.33;;;9.30;99.90;;;;;;7395763;19;19933;-78
2023/04/20 10:36:29;;;;;;;6.75;3.70;;;9.30;99.90;;;;;;7397484;19;20022;-78
2023/04/20 10:39:00;;;;;;;7.80;4.38;;;9.10;99.90;;;;;;7400788;19;19970;-78
2023/04/20 10:41:29;;;;;;;6.05;3.28;;;9.30;99.90;;;;;;7408987;19;19933;-80
2023/04/20 10:44:09;;;;;;;5.95;3.47;;;9.30;99.90;;;;;;7415029;19;19983;-81
2023/04/20 10:46:40;;;;;;;7.00;3.75;;;9.40;99.90;;;;;;7412513;19;20021;-80
2023/04/20 10:49:09;;;;;;;6.53;3.78;;;9.30;99.90;;;;;;7413670;19;19929;-81
2023/04/20 10:51:38;;;;;;;6.28;3.17;;;9.30;99.90;;;;;;7414760;19;20232;-80
2023/04/20 10:54:10;;;;;;;5.53;3.70;;;9.30;99.90;;;;;;7411246;19;19918;-76
2023/04/20 10:56:40;;;;;;;6.43;4.20;;;9.20;99.90;;;;;;7410387;19;19918;-75
2023/04/20 10:59:10;;;;;;;6.72;3.22;;;9.30;99.90;;;;;;7412421;19;20268;-75
2023/04/20 11:01:42;;;;;;;8.10;3.60;;;9.20;99.90;;;;;;7411007;19;19950;-76
2023/04/20 11:04:12;;;;;;;5.72;3.50;;;9.20;99.90;;;;;;7412616;19;19926;-76
2023/04/20 11:06:43;;;;;;;5.65;3.38;;;9.30;99.90;;;;;;7414782;19;19919;-75
2023/04/20 11:09:25;;;;;;;5.50;3.40;;;9.40;99.90;;;;;;7408686;19;19922;-75
2023/04/20 11:12:01;;;;;;;5.38;3.63;;;9.50;99.90;;;;;;7410738;19;19918;-76
2023/04/20 11:14:30;;;;;;;6.53;3.75;;;9.40;99.90;;;;;;7409795;19;19942;-76
2023/04/20 11:17:03;;;;;;;8.90;4.15;;;9.70;99.90;;;;;;7414779;19;19918;-75
2023/04/20 11:19:34;;;;;;;6.13;3.80;;;9.70;99.90;;;;;;7410607;19;19948;-76
2023/04/20 11:22:03;;;;;;;9.80;4.10;;;9.60;99.90;;;;;;7415387;19;19935;-76
2023/04/20 11:24:34;;;;;;;5.05;3.67;;;9.80;99.90;;;;;;7410621;19;19911;-76
2023/04/20 11:27:04;;;;;;;6.55;3.95;;;9.90;99.90;;;;;;7411679;19;19918;-76
2023/04/20 11:29:34;;;;;;;7.97;4.03;;;9.90;99.90;;;;;;7410298;19;20343;-76
2023/04/20 11:32:07;;;;;;;6.72;3.85;;;9.80;99.90;;;;;;7410862;19;19926;-76
2023/04/20 11:34:38;;;;;;;8.95;4.90;;;9.80;99.90;;;;;;7410430;19;19914;-76
2023/04/20 11:37:07;;;;;;;8.38;4.15;;;9.70;99.90;;;;;;7410407;19;19919;-76
2023/04/20 11:39:36;;;;;;;9.02;4.15;;;9.80;99.90;;;;;;7409690;19;19927;-75
2023/04/20 11:42:05;;;;;;;7.65;4.10;;;9.60;99.90;;;;;;7409786;19;19923;-76
2023/04/20 11:44:35;;;;;;;10.05;4.80;;;9.60;99.90;;;;;;7409959;19;19915;-76
2023/04/20 11:47:06;;;;;;;7.05;4.30;;;9.70;99.90;;;;;;7408057;19;20356;-75
2023/04/20 11:49:35;;;;;;;7.88;4.50;;;9.80;99.90;;;;;;7410469;19;19938;-76
2023/04/20 11:52:04;;;;;;;7.25;5.10;;;9.90;99.90;;;;;;7401639;19;19922;-76
2023/04/20 11:54:33;;;;;;;7.25;4.32;;;9.80;99.90;;;;;;7404883;19;20281;-76
2023/04/20 11:57:03;;;;;;;8.35;4.75;;;10.00;99.90;;;;;;7403837;19;20371;-75
2023/04/20 11:59:32;;;;;;;7.90;4.80;;;10.00;99.90;;;;;;7403173;19;19986;-76
2023/04/20 12:02:03;;;;;;;7.60;4.80;;;10.00;99.90;;;;;;7402683;19;19915;-76
2023/04/20 12:04:34;;;;;;;7.28;4.18;;;10.40;99.90;;;;;;7405430;19;19932;-76
2023/04/20 12:07:04;;;;;;;6.53;4.03;;;10.80;99.90;;;;;;7402424;19;19922;-76
2023/04/20 12:09:36;;;;;;;5.88;4.13;;;11.20;99.90;;;;;;7404353;19;19924;-76
2023/04/20 12:12:05;;;;;;;8.05;4.00;;;11.70;99.90;;;;;;7404528;19;19926;-76
2023/04/20 12:14:35;;;;;;;7.00;4.30;;;11.90;99.90;;;;;;7403248;19;19928;-76
2023/04/20 12:17:05;;;;;;;6.93;3.88;;;12.00;99.90;;;;;;7402398;19;19922;-75
2023/04/20 12:19:36;;;;;;;7.00;4.50;;;12.20;99.90;;;;;;7401743;19;20613;-76
2023/04/20 12:22:06;;;;;;;7.82;4.65;;;12.20;99.90;;;;;;7405333;19;19915;-76
2023/04/20 12:24:34;;;;;;;6.70;3.90;;;12.00;99.90;;;;;;7401746;19;19919;-76
2023/04/20 12:27:04;;;;;;;6.82;4.18;;;11.80;99.90;;;;;;7403617;19;19919;-76
2023/04/20 12:29:34;;;;;;;8.52;4.93;;;11.60;99.90;;;;;;7403224;19;20368;-76
2023/04/20 12:32:03;;;;;;;6.85;4.80;;;11.60;99.90;;;;;;7404789;19;19919;-75
2023/04/20 12:34:32;;;;;;;7.47;3.88;;;11.50;99.90;;;;;;7401400;19;19942;-75
2023/04/20 12:37:03;;;;;;;5.72;4.00;;;11.40;99.90;;;;;;7400973;19;19921;-75
2023/04/20 12:39:32;;;;;;;8.02;4.85;;;11.30;99.90;;;;;;7401068;19;19968;-76
2023/04/20 12:42:02;;;;;;;5.85;4.03;;;11.10;99.90;;;;;;7400653;19;20264;-75
2023/04/20 12:44:31;;;;;;;7.43;4.72;;;10.90;99.90;;;;;;7401072;19;20319;-75
2023/04/20 12:47:00;;;;;;;6.72;4.82;;;10.90;99.90;;;;;;7403620;19;19942;-75
2023/04/20 12:49:29;;;;;;;7.45;4.35;;;10.80;99.90;;;;;;7402233;19;19939;-75
2023/04/20 12:51:58;;;;;;;8.48;4.32;;;11.20;99.90;;;;;;7400640;19;19926;-75
2023/04/20 12:54:29;;;;;;;7.35;4.28;;;11.40;99.90;;;;;;7400527;19;19925;-75
2023/04/20 12:56:58;;;;;;;8.18;3.90;;;11.80;99.90;;;;;;7400176;19;20418;-75
2023/04/20 12:59:27;;;;;;;8.23;4.40;;;12.30;99.90;;;;;;7400158;19;19947;-75
2023/04/20 13:01:56;;;;;;;8.02;4.40;;;12.50;99.90;;;;;;7399292;19;19918;-75
2023/04/20 13:04:25;;;;;;;5.32;4.10;;;12.30;99.90;;;;;;7400550;19;19935;-76
2023/04/20 13:06:54;;;;;;;7.18;4.70;;;12.30;99.90;;;;;;7405294;19;19926;-76
2023/04/20 13:09:25;;;;;;;6.78;4.20;;;12.60;99.90;;;;;;7398579;19;19926;-75